Time;durP1;ratioP1;P1;durP2;ratioP2;P2;SDS_P1;SDS_P2;PMS_P1;PMS_P2;Temp;Humidity;BMP_temperature;BMP_pressure;BME280_temperature;BME280_humidity;BME280_pressure;Samples;Min_cycle;Max_cycle;Signal;HPM_P1;HPM_P2
2022/04/08 00:02:13;;;;;;;;;;;8.80;58.00;;;;;;5103711;28;19916;-69
2022/04/08 00:04:39;;;;;;;;;;;8.80;58.40;;;;;;5103957;28;20203;-68
2022/04/08 00:07:05;;;;;;;;;;;8.80;58.40;;;;;;5102558;28;19919;-69
2022/04/08 00:09:30;;;;;;;;;;;8.80;58.80;;;;;;5103666;28;19946;-69
2022/04/08 00:11:57;;;;;;;;;;;8.80;58.10;;;;;;5103484;28;19908;-69
2022/04/08 00:14:23;;;;;;;;;;;8.80;58.40;;;;;;5103793;28;19934;-69
2022/04/08 00:16:49;;;;;;;;;;;8.70;58.30;;;;;;5102729;28;19923;-69
2022/04/08 00:19:15;;;;;;;;;;;8.70;58.40;;;;;;5103722;28;19908;-68
2022/04/08 00:21:40;;;;;;;;;;;8.70;58.20;;;;;;5103326;28;19908;-69
2022/04/08 00:24:07;;;;;;;;;;;8.70;58.40;;;;;;5103366;28;20137;-69
2022/04/08 00:26:33;;;;;;;;;;;8.70;58.40;;;;;;5103326;28;19912;-69
2022/04/08 00:28:58;;;;;;;;;;;8.70;58.50;;;;;;5103452;28;19916;-69
2022/04/08 00:31:24;;;;;;;;;;;8.60;58.70;;;;;;5103096;28;19915;-69
2022/04/08 00:33:50;;;;;;;;;;;8.60;58.90;;;;;;5103461;28;19908;-69
2022/04/08 00:36:16;;;;;;;;;;;8.50;58.40;;;;;;5103318;28;20017;-69
2022/04/08 00:38:41;;;;;;;;;;;8.60;58.00;;;;;;5103122;28;20245;-68
2022/04/08 00:41:07;;;;;;;;;;;8.60;58.00;;;;;;5102170;28;19916;-69
2022/04/08 00:43:37;;;;;;;;;;;8.60;57.70;;;;;;5103162;28;19924;-69
2022/04/08 00:46:04;;;;;;;;;;;8.50;57.70;;;;;;5103085;28;19920;-69
2022/04/08 00:48:30;;;;;;;;;;;8.60;57.50;;;;;;5103117;28;19953;-68
2022/04/08 00:50:56;;;;;;;;;;;8.50;57.20;;;;;;5102845;28;19912;-69
2022/04/08 00:53:22;;;;;;;;;;;8.50;58.00;;;;;;5085034;28;19914;-69
2022/04/08 00:55:47;;;;;;;;;;;8.50;57.80;;;;;;5102131;28;19908;-69
2022/04/08 00:58:13;;;;;;;;;;;8.50;58.00;;;;;;5084863;28;19979;-69
2022/04/08 01:00:39;;;;;;;;;;;8.50;58.00;;;;;;5084665;28;19916;-70
2022/04/08 01:03:05;;;;;;;;;;;8.50;58.10;;;;;;5102938;28;19915;-69
2022/04/08 01:05:32;;;;;;;;;;;8.40;58.00;;;;;;5102896;28;19908;-69
2022/04/08 01:07:57;;;;;;;;;;;8.40;58.10;;;;;;5084534;28;19918;-69
2022/04/08 01:10:23;;;;;;;;;;;8.40;58.30;;;;;;5102480;28;19948;-69
2022/04/08 01:12:49;;;;;;;;;;;8.40;57.90;;;;;;5084593;28;19908;-70
2022/04/08 01:15:19;;;;;;;;;;;8.40;58.20;;;;;;5084808;28;19923;-68
2022/04/08 01:17:45;;;;;;;;;;;8.40;58.20;;;;;;5102575;28;19908;-68
2022/04/08 01:20:10;;;;;;;;;;;8.30;58.10;;;;;;5102597;28;19908;-68
2022/04/08 01:22:36;;;;;;;;;;;8.30;58.30;;;;;;5102348;28;19915;-69
2022/04/08 01:25:03;;;;;;;;;;;8.30;58.60;;;;;;5102274;28;19943;-68
2022/04/08 01:27:29;;;;;;;;;;;8.30;58.40;;;;;;5102462;28;20225;-69
2022/04/08 01:29:55;;;;;;;;;;;8.30;58.40;;;;;;5084530;28;19984;-69
2022/04/08 01:32:20;;;;;;;;;;;8.30;59.00;;;;;;5101221;28;20164;-69
2022/04/08 01:34:49;;;;;;;;;;;8.30;59.30;;;;;;5102461;28;19908;-69
2022/04/08 01:37:17;;;;;;;;;;;8.20;58.80;;;;;;5114794;22;19976;-69
2022/04/08 01:39:43;;;;;;;;;;;8.20;59.60;;;;;;5055072;28;20010;-69
2022/04/08 01:42:08;;;;;;;;;;;8.20;59.30;;;;;;5061282;28;19909;-69
2022/04/08 01:44:35;;;;;;;;;;;8.20;59.60;;;;;;5061474;28;20289;-70
2022/04/08 01:47:01;;;;;;;;;;;8.20;59.60;;;;;;5062771;28;19950;-70
2022/04/08 01:49:26;;;;;;;;;;;8.20;59.60;;;;;;5062659;28;19984;-70
2022/04/08 01:51:52;;;;;;;;;;;8.20;59.30;;;;;;5061369;28;19921;-70
2022/04/08 01:54:18;;;;;;;;;;;8.10;59.80;;;;;;5065146;28;19951;-70
2022/04/08 01:56:43;;;;;;;;;;;8.10;59.60;;;;;;5064907;28;19947;-70
2022/04/08 01:59:09;;;;;;;;;;;8.10;60.10;;;;;;5065452;28;20116;-70
2022/04/08 02:01:35;;;;;;;;;;;8.00;60.50;;;;;;5065231;28;19975;-70
2022/04/08 02:04:00;;;;;;;;;;;8.10;60.60;;;;;;5065357;28;19909;-70
2022/04/08 02:06:26;;;;;;;;;;;8.00;61.30;;;;;;5065166;28;19952;-71
2022/04/08 02:08:53;;;;;;;;;;;8.00;61.30;;;;;;5065107;28;20331;-70
2022/04/08 02:11:20;;;;;;;;;;;7.90;61.30;;;;;;5073667;28;20111;-70
2022/04/08 02:13:46;;;;;;;;;;;7.90;61.60;;;;;;5065409;28;19957;-70
2022/04/08 02:16:12;;;;;;;;;;;7.90;61.90;;;;;;5065095;28;19946;-68
2022/04/08 02:18:38;;;;;;;;;;;7.90;62.40;;;;;;5047296;28;19916;-70
2022/04/08 02:21:04;;;;;;;;;;;7.90;62.40;;;;;;5065285;28;19915;-70
2022/04/08 02:23:30;;;;;;;;;;;7.90;61.90;;;;;;5047207;28;20253;-70
2022/04/08 02:25:56;;;;;;;;;;;7.90;62.30;;;;;;5065173;28;19976;-70
2022/04/08 02:28:21;;;;;;;;;;;7.90;62.10;;;;;;5065582;28;20460;-69
2022/04/08 02:30:48;;;;;;;;;;;7.80;62.20;;;;;;5046838;28;19974;-69
2022/04/08 02:33:13;;;;;;;;;;;7.80;62.90;;;;;;5064810;28;19916;-70
2022/04/08 02:35:39;;;;;;;;;;;7.70;63.20;;;;;;5064714;28;19909;-70
2022/04/08 02:38:05;;;;;;;;;;;7.70;63.40;;;;;;5064314;28;19938;-69
2022/04/08 02:40:30;;;;;;;;;;;7.70;64.20;;;;;;5063283;28;20174;-69
2022/04/08 02:42:56;;;;;;;;;;;7.70;63.90;;;;;;5064335;28;19962;-69
2022/04/08 02:45:22;;;;;;;;;;;7.60;65.10;;;;;;5064614;28;19916;-69
2022/04/08 02:47:47;;;;;;;;;;;7.60;64.50;;;;;;5064377;28;19943;-68
2022/04/08 02:50:13;;;;;;;;;;;7.60;64.70;;;;;;5064568;28;19916;-69
2022/04/08 02:52:39;;;;;;;;;;;7.60;64.50;;;;;;5064174;28;20340;-69
2022/04/08 02:55:05;;;;;;;;;;;7.60;65.10;;;;;;5063901;28;19937;-69
2022/04/08 02:57:30;;;;;;;;;;;7.60;64.90;;;;;;5064019;28;19913;-69
2022/04/08 02:59:56;;;;;;;;;;;7.60;65.10;;;;;;5064349;28;19909;-69
2022/04/08 03:02:22;;;;;;;;;;;7.50;65.40;;;;;;5046211;28;19917;-69
2022/04/08 03:04:47;;;;;;;;;;;7.50;66.00;;;;;;5063625;28;19924;-69
2022/04/08 03:07:13;;;;;;;;;;;7.50;66.40;;;;;;5064085;28;19913;-70
2022/04/08 03:09:39;;;;;;;;;;;7.40;66.60;;;;;;5064042;28;20204;-69
2022/04/08 03:12:05;;;;;;;;;;;7.40;66.80;;;;;;5062713;28;19909;-69
2022/04/08 03:14:34;;;;;;;;;;;7.40;67.00;;;;;;5063979;28;19912;-69
2022/04/08 03:16:59;;;;;;;;;;;7.50;67.20;;;;;;5063971;28;19909;-69
2022/04/08 03:19:25;;;;;;;;;;;7.40;67.30;;;;;;5063837;28;19909;-69
2022/04/08 03:21:51;;;;;;;;;;;7.40;67.40;;;;;;5063715;28;20200;-69
2022/04/08 03:24:16;;;;;;;;;;;7.40;67.70;;;;;;5063797;28;19909;-69
2022/04/08 03:26:43;;;;;;;;;;;7.40;68.00;;;;;;5063563;28;20155;-69
2022/04/08 03:29:08;;;;;;;;;;;7.40;68.30;;;;;;5063658;28;19916;-69
2022/04/08 03:31:34;;;;;;;;;;;7.30;68.70;;;;;;5063314;28;19908;-69
2022/04/08 03:34:00;;;;;;;;;;;7.30;68.70;;;;;;5063684;28;19913;-69
2022/04/08 03:36:25;;;;;;;;;;;7.30;68.50;;;;;;5062210;28;19908;-69
2022/04/08 03:38:51;;;;;;;;;;;7.30;68.90;;;;;;5063633;28;19913;-68
2022/04/08 03:41:17;;;;;;;;;;;7.20;69.30;;;;;;5063189;28;19924;-69
2022/04/08 03:43:42;;;;;;;;;;;7.20;69.60;;;;;;5063276;28;20185;-69
2022/04/08 03:46:08;;;;;;;;;;;7.20;69.40;;;;;;5063166;28;19913;-69
2022/04/08 03:48:34;;;;;;;;;;;7.20;69.30;;;;;;5063537;28;19908;-69
2022/04/08 03:50:59;;;;;;;;;;;7.30;69.40;;;;;;5062892;28;20245;-69
2022/04/08 03:53:25;;;;;;;;;;;7.20;69.70;;;;;;5063637;28;19908;-68
2022/04/08 03:55:51;;;;;;;;;;;7.20;69.80;;;;;;5062787;28;19909;-67
2022/04/08 03:58:16;;;;;;;;;;;7.10;69.90;;;;;;5063959;28;19909;-68
2022/04/08 04:00:42;;;;;;;;;;;7.10;69.90;;;;;;5063530;28;19920;-68
2022/04/08 04:03:08;;;;;;;;;;;7.10;69.90;;;;;;5064771;28;19983;-68
2022/04/08 04:05:36;;;;;;;;;;;7.20;70.10;;;;;;5071168;28;19946;-68
2022/04/08 04:08:02;;;;;;;;;;;7.10;70.30;;;;;;5075885;28;19916;-67
2022/04/08 04:10:28;;;;;;;;;;;7.00;70.90;;;;;;5063827;28;19921;-67
2022/04/08 04:12:53;;;;;;;;;;;7.00;70.90;;;;;;5057502;28;19915;-67
2022/04/08 04:15:20;;;;;;;;;;;7.00;71.40;;;;;;5065673;28;20199;-67
2022/04/08 04:17:45;;;;;;;;;;;7.00;71.10;;;;;;5059787;28;19936;-67
2022/04/08 04:20:12;;;;;;;;;;;7.00;71.50;;;;;;5069819;28;20262;-67
2022/04/08 04:22:37;;;;;;;;;;;7.00;71.70;;;;;;5026428;28;19967;-68
2022/04/08 04:25:04;;;;;;;;;;;6.90;71.70;;;;;;5060320;28;19943;-68
2022/04/08 04:27:30;;;;;;;;;;;7.00;72.00;;;;;;5070506;28;20225;-67
2022/04/08 04:29:55;;;;;;;;;;;6.90;71.80;;;;;;5063803;28;19909;-68
2022/04/08 04:32:21;;;;;;;;;;;6.90;72.50;;;;;;5063469;28;20171;-68
2022/04/08 04:34:47;;;;;;;;;;;6.90;71.90;;;;;;5070117;28;19920;-68
2022/04/08 04:37:12;;;;;;;;;;;6.90;72.10;;;;;;5065100;28;19921;-68
2022/04/08 04:39:38;;;;;;;;;;;6.90;72.40;;;;;;5064826;28;20081;-68
2022/04/08 04:42:06;;;;;;;;;;;6.90;73.00;;;;;;5063382;28;19908;-68
2022/04/08 04:44:32;;;;;;;;;;;6.80;73.20;;;;;;5062020;28;19915;-68
2022/04/08 04:46:57;;;;;;;;;;;6.80;73.60;;;;;;5063342;28;19925;-68
2022/04/08 04:49:23;;;;;;;;;;;6.70;74.00;;;;;;5062242;28;20164;-68
2022/04/08 04:51:50;;;;;;;;;;;6.70;74.60;;;;;;5063317;28;19908;-68
2022/04/08 04:54:15;;;;;;;;;;;6.70;75.00;;;;;;5063956;28;20138;-68
2022/04/08 04:56:42;;;;;;;;;;;6.70;75.10;;;;;;5068301;28;19944;-68
2022/04/08 04:59:08;;;;;;;;;;;6.70;75.10;;;;;;5063512;28;19908;-67
2022/04/08 05:01:34;;;;;;;;;;;6.70;76.10;;;;;;5068688;28;19958;-68
2022/04/08 05:04:00;;;;;;;;;;;6.70;75.80;;;;;;5078057;28;19920;-67
2022/04/08 05:06:25;;;;;;;;;;;6.70;76.60;;;;;;5064830;28;19917;-68
2022/04/08 05:08:51;;;;;;;;;;;6.60;76.70;;;;;;5059770;28;19913;-67
2022/04/08 05:11:17;;;;;;;;;;;6.70;76.60;;;;;;5061960;28;19916;-68
2022/04/08 05:13:43;;;;;;;;;;;6.70;76.50;;;;;;5062866;28;19917;-67
2022/04/08 05:16:08;;;;;;;;;;;6.70;76.70;;;;;;5065328;28;19980;-68
2022/04/08 05:18:34;;;;;;;;;;;6.70;77.00;;;;;;5063889;28;19909;-68
2022/04/08 05:21:00;;;;;;;;;;;6.70;77.10;;;;;;5063920;28;19955;-68
2022/04/08 05:23:29;;;;;;;;;;;6.70;77.60;;;;;;5063660;28;19909;-68
2022/04/08 05:25:58;;;;;;;;;;;6.70;77.80;;;;;;5066794;28;19908;-68
2022/04/08 05:28:23;;;;;;;;;;;6.70;77.90;;;;;;5072992;28;20276;-68
2022/04/08 05:30:49;;;;;;;;;;;6.70;77.90;;;;;;5062669;28;19909;-69
2022/04/08 05:33:15;;;;;;;;;;;6.80;77.80;;;;;;5062746;28;19955;-69
2022/04/08 05:35:41;;;;;;;;;;;6.80;77.70;;;;;;5065730;28;19991;-69
2022/04/08 05:38:07;;;;;;;;;;;6.90;77.40;;;;;;5071691;28;19913;-68
2022/04/08 05:40:32;;;;;;;;;;;7.00;77.30;;;;;;5031325;28;19920;-68
2022/04/08 05:42:58;;;;;;;;;;;7.10;77.00;;;;;;5078141;28;19939;-68
2022/04/08 05:45:24;;;;;;;;;;;7.20;76.40;;;;;;5072596;28;19965;-67
2022/04/08 05:47:50;;;;;;;;;;;7.20;76.50;;;;;;5062380;28;19913;-67
2022/04/08 05:50:16;;;;;;;;;;;7.30;76.50;;;;;;5061195;28;19908;-67
2022/04/08 05:52:43;;;;;;;;;;;7.30;76.30;;;;;;5061060;28;19959;-67
2022/04/08 05:55:09;;;;;;;;;;;7.40;76.20;;;;;;5062876;28;20013;-67
2022/04/08 05:57:36;;;;;;;;;;;7.50;75.70;;;;;;5062689;28;19909;-67
2022/04/08 06:00:02;;;;;;;;;;;7.50;76.00;;;;;;5062539;28;20116;-67
2022/04/08 06:02:27;;;;;;;;;;;7.50;75.90;;;;;;5062571;28;19917;-67
2022/04/08 06:04:53;;;;;;;;;;;7.60;75.30;;;;;;5062366;28;19980;-67
2022/04/08 06:07:19;;;;;;;;;;;7.60;75.20;;;;;;5062261;28;20223;-67
2022/04/08 06:09:44;;;;;;;;;;;7.60;75.40;;;;;;5061516;28;19917;-67
2022/04/08 06:12:10;;;;;;;;;;;7.70;75.60;;;;;;5062381;28;20111;-67
2022/04/08 06:14:36;;;;;;;;;;;7.70;75.60;;;;;;5043985;28;19909;-67
2022/04/08 06:17:02;;;;;;;;;;;7.80;75.80;;;;;;5062066;28;20139;-67
2022/04/08 06:19:27;;;;;;;;;;;7.90;75.80;;;;;;5062522;28;20266;-68
2022/04/08 06:21:54;;;;;;;;;;;8.00;75.70;;;;;;5061759;28;19909;-68
2022/04/08 06:24:20;;;;;;;;;;;8.00;76.10;;;;;;5062128;28;19980;-68
2022/04/08 06:26:46;;;;;;;;;;;8.00;75.80;;;;;;5062343;28;20286;-68
2022/04/08 06:29:11;;;;;;;;;;;8.00;75.40;;;;;;5061952;28;19916;-68
2022/04/08 06:31:37;;;;;;;;;;;8.10;75.40;;;;;;5062251;28;19923;-68
2022/04/08 06:34:03;;;;;;;;;;;8.10;74.90;;;;;;5062526;28;19909;-68
2022/04/08 06:36:29;;;;;;;;;;;8.10;75.10;;;;;;5062325;28;20007;-68
2022/04/08 06:38:55;;;;;;;;;;;8.10;75.00;;;;;;5063261;28;19988;-67
2022/04/08 06:41:20;;;;;;;;;;;8.10;75.20;;;;;;5062727;28;20222;-68
2022/04/08 06:43:46;;;;;;;;;;;8.10;74.90;;;;;;5065714;28;19908;-68
2022/04/08 06:46:12;;;;;;;;;;;8.00;75.10;;;;;;5065660;28;20105;-67
2022/04/08 06:48:37;;;;;;;;;;;8.00;75.90;;;;;;5064643;28;19917;-71
2022/04/08 06:51:04;;;;;;;;;;;8.00;75.50;;;;;;5064627;28;19976;-69
2022/04/08 06:53:30;;;;;;;;;;;8.00;75.10;;;;;;5064847;28;19909;-67
2022/04/08 06:55:56;;;;;;;;;;;8.20;75.60;;;;;;5064814;28;19913;-69
2022/04/08 06:58:26;;;;;;;;;;;8.30;74.90;;;;;;5062818;28;20179;-67
2022/04/08 07:00:52;;;;;;;;;;;8.40;74.70;;;;;;5064420;28;20139;-70
2022/04/08 07:03:18;;;;;;;;;;;8.40;74.30;;;;;;5064833;28;19924;-69
2022/04/08 07:05:44;;;;;;;;;;;8.40;74.30;;;;;;5063192;28;19971;-69
2022/04/08 07:08:10;;;;;;;;;;;8.50;74.50;;;;;;5064276;28;19920;-67
2022/04/08 07:10:35;;;;;;;;;;;8.50;74.10;;;;;;5064143;28;19908;-68
2022/04/08 07:13:01;;;;;;;;;;;8.60;74.40;;;;;;5064176;28;19917;-68
2022/04/08 07:15:27;;;;;;;;;;;8.60;73.90;;;;;;5064724;28;19936;-68
2022/04/08 07:17:52;;;;;;;;;;;8.60;73.50;;;;;;5064298;28;19921;-68
2022/04/08 07:20:18;;;;;;;;;;;8.50;73.40;;;;;;5064412;28;20107;-70
2022/04/08 07:22:44;;;;;;;;;;;8.60;73.10;;;;;;5064098;28;19913;-69
2022/04/08 07:25:10;;;;;;;;;;;8.60;73.50;;;;;;5064266;28;19913;-69
2022/04/08 07:27:47;;;;;;;;;;;8.60;72.30;;;;;;5064029;28;20199;-70
2022/04/08 07:30:13;;;;;;;;;;;8.60;72.50;;;;;;5060758;28;20103;-70
2022/04/08 07:32:39;;;;;;;;;;;8.70;72.80;;;;;;5046269;28;19909;-69
2022/04/08 07:35:05;;;;;;;;;;;8.80;74.00;;;;;;5064155;28;19916;-70
2022/04/08 07:37:31;;;;;;;;;;;8.80;73.90;;;;;;5064040;28;20093;-69
2022/04/08 07:39:57;;;;;;;;;;;9.00;73.60;;;;;;5063906;28;19972;-69
2022/04/08 07:42:23;;;;;;;;;;;9.20;73.00;;;;;;5063263;28;19983;-71
2022/04/08 07:44:49;;;;;;;;;;;9.30;72.80;;;;;;5063962;28;19916;-71
2022/04/08 07:47:15;;;;;;;;;;;9.40;72.40;;;;;;5063890;28;19913;-71
2022/04/08 07:49:42;;;;;;;;;;;9.50;71.30;;;;;;5046060;28;19912;-71
2022/04/08 07:52:07;;;;;;;;;;;9.50;71.40;;;;;;5062245;28;20123;-71
2022/04/08 07:54:33;;;;;;;;;;;9.60;71.60;;;;;;5063798;28;19954;-71
2022/04/08 07:56:59;;;;;;;;;;;9.60;70.80;;;;;;5062722;28;19909;-70
2022/04/08 07:59:25;;;;;;;;;;;9.50;70.60;;;;;;5059899;28;19923;-70
2022/04/08 08:01:50;;;;;;;;;;;9.60;70.60;;;;;;5063068;28;19916;-68
2022/04/08 08:04:16;;;;;;;;;;;9.60;70.80;;;;;;5063921;28;19976;-68
2022/04/08 08:06:42;;;;;;;;;;;9.60;70.30;;;;;;5063668;28;19920;-68
2022/04/08 08:09:08;;;;;;;;;;;9.60;69.30;;;;;;5064262;28;19952;-67
2022/04/08 08:11:34;;;;;;;;;;;9.60;69.60;;;;;;5063743;28;19913;-67
2022/04/08 08:13:59;;;;;;;;;;;9.60;70.40;;;;;;5063487;28;19909;-67
2022/04/08 08:16:25;;;;;;;;;;;9.60;70.40;;;;;;5062572;28;19916;-67
2022/04/08 08:18:56;;;;;;;;;;;9.60;69.70;;;;;;5063490;28;19915;-67
2022/04/08 08:21:22;;;;;;;;;;;9.60;69.50;;;;;;5063209;28;19940;-69
2022/04/08 08:23:47;;;;;;;;;;;9.70;69.40;;;;;;5063430;28;19987;-68
2022/04/08 08:26:13;;;;;;;;;;;9.80;69.30;;;;;;5063391;28;19920;-67
2022/04/08 08:28:39;;;;;;;;;;;9.80;69.30;;;;;;5045438;28;19916;-68
2022/04/08 08:31:05;;;;;;;;;;;9.90;70.20;;;;;;5059352;28;19908;-67
2022/04/08 08:33:30;;;;;;;;;;;10.00;69.20;;;;;;5062969;28;19909;-67
2022/04/08 08:35:56;;;;;;;;;;;10.00;68.40;;;;;;5063113;28;20140;-69
2022/04/08 08:38:22;;;;;;;;;;;10.00;68.20;;;;;;5045524;28;19928;-69
2022/04/08 08:40:48;;;;;;;;;;;10.00;68.10;;;;;;5062534;28;19936;-69
2022/04/08 08:43:17;;;;;;;;;;;10.10;68.30;;;;;;5062963;28;20116;-69
2022/04/08 08:45:48;;;;;;;;;;;10.00;67.40;;;;;;5062068;28;19932;-68
2022/04/08 08:48:16;;;;;;;;;;;10.10;66.90;;;;;;5044766;28;19917;-68
2022/04/08 08:50:46;;;;;;;;;;;10.00;67.60;;;;;;5062484;28;19908;-68
2022/04/08 08:53:15;;;;;;;;;;;10.00;67.40;;;;;;5062415;28;20242;-68
2022/04/08 08:55:41;;;;;;;;;;;9.90;67.00;;;;;;5028889;28;19909;-71
2022/04/08 08:58:08;;;;;;;;;;;10.00;66.80;;;;;;5061528;28;19916;-68
2022/04/08 09:00:35;;;;;;;;;;;10.00;66.60;;;;;;5044743;28;19916;-68
2022/04/08 09:03:02;;;;;;;;;;;9.90;66.00;;;;;;5061983;28;19915;-68
2022/04/08 09:05:28;;;;;;;;;;;9.80;66.10;;;;;;5062259;28;19915;-68
2022/04/08 09:08:05;;;;;;;;;;;9.80;66.30;;;;;;5062386;28;19952;-68
2022/04/08 09:10:50;;;;;;;;;;;9.70;66.20;;;;;;5062346;28;19909;-68
2022/04/08 09:13:20;;;;;;;;;;;9.70;66.50;;;;;;5062430;28;19908;-68
2022/04/08 09:15:52;;;;;;;;;;;9.70;67.40;;;;;;5058753;28;19955;-68
2022/04/08 09:18:18;;;;;;;;;;;9.70;67.60;;;;;;5061359;28;20101;-68
2022/04/08 09:20:45;;;;;;;;;;;9.70;67.90;;;;;;5062043;28;19972;-68
2022/04/08 09:23:12;;;;;;;;;;;9.70;67.90;;;;;;5044910;28;19916;-67
2022/04/08 09:25:39;;;;;;;;;;;9.60;68.10;;;;;;5062383;28;19916;-67
2022/04/08 09:28:05;;;;;;;;;;;9.70;68.80;;;;;;5044530;28;19912;-68
2022/04/08 09:30:31;;;;;;;;;;;9.70;69.20;;;;;;5061983;28;19909;-68
2022/04/08 09:32:58;;;;;;;;;;;9.80;69.60;;;;;;5044504;28;19943;-68
2022/04/08 09:35:24;;;;;;;;;;;10.00;68.80;;;;;;5044858;28;19931;-67
2022/04/08 09:37:58;;;;;;;;;;;10.00;67.80;;;;;;5062220;28;19912;-69
2022/04/08 09:40:24;;;;;;;;;;;10.10;67.60;;;;;;5062277;28;19908;-69
2022/04/08 09:42:49;;;;;;;;;;;10.20;67.20;;;;;;5027501;28;19950;-68
2022/04/08 09:45:25;;;;;;;;;;;10.30;67.30;;;;;;5044207;28;19909;-69
2022/04/08 09:47:51;;;;;;;;;;;10.30;66.80;;;;;;5031540;28;19912;-68
2022/04/08 09:50:17;;;;;;;;;;;10.00;65.10;;;;;;5062124;28;20138;-69
2022/04/08 09:52:42;;;;;;;;;;;9.80;66.70;;;;;;5061797;28;19955;-67
2022/04/08 09:55:09;;;;;;;;;;;9.70;67.20;;;;;;5027174;28;19908;-67
2022/04/08 09:57:38;;;;;;;;;;;9.70;68.00;;;;;;5060174;28;19909;-69
2022/04/08 10:00:05;;;;;;;;;;;9.80;68.40;;;;;;5061297;28;20031;-68
2022/04/08 10:02:32;;;;;;;;;;;9.80;66.70;;;;;;5060919;28;20073;-68
2022/04/08 10:04:59;;;;;;;;;;;9.80;66.70;;;;;;5061262;28;20231;-67
2022/04/08 10:07:24;;;;;;;;;;;9.80;66.40;;;;;;5060788;28;20211;-68
2022/04/08 10:10:12;;;;;;;;;;;9.90;67.80;;;;;;5023522;28;19976;-66
2022/04/08 10:12:50;;;;;;;;;;;9.90;72.30;;;;;;5040833;28;20151;-68
2022/04/08 10:15:42;;;;;;;;;;;9.80;75.10;;;;;;5011800;28;20146;-69
2022/04/08 10:18:07;;;;;;;;;;;9.70;77.20;;;;;;5042069;28;19952;-67
2022/04/08 10:20:34;;;;;;;;;;;9.90;76.50;;;;;;5046881;28;19963;-67
2022/04/08 10:23:04;;;;;;;;;;;9.90;76.10;;;;;;5064789;28;19936;-68
2022/04/08 10:25:37;;;;;;;;;;;9.70;77.40;;;;;;5064916;28;19939;-68
2022/04/08 10:28:03;;;;;;;;;;;9.70;78.80;;;;;;5064790;28;19920;-68
2022/04/08 10:30:29;;;;;;;;;;;9.40;81.60;;;;;;5064448;28;19913;-68
2022/04/08 10:33:02;;;;;;;;;;;9.40;83.50;;;;;;5029646;28;19954;-67
2022/04/08 10:35:28;;;;;;;;;;;9.40;84.70;;;;;;5046812;28;20216;-68
2022/04/08 10:38:04;;;;;;;;;;;9.40;85.10;;;;;;5064435;28;19919;-69
2022/04/08 10:40:34;;;;;;;;;;;9.30;85.40;;;;;;5064457;28;20085;-68
2022/04/08 10:43:01;;;;;;;;;;;9.30;83.60;;;;;;5064515;28;19916;-67
2022/04/08 10:45:27;;;;;;;;;;;9.30;84.00;;;;;;5046541;28;19908;-68
2022/04/08 10:47:52;;;;;;;;;;;9.10;85.20;;;;;;5063924;28;19928;-68
2022/04/08 10:50:31;;;;;;;;;;;9.10;86.40;;;;;;5064322;28;19909;-67
2022/04/08 10:53:09;;;;;;;;;;;9.20;88.00;;;;;;5046492;28;19909;-68
2022/04/08 10:55:51;;;;;;;;;;;9.10;86.30;;;;;;5064401;28;20223;-67
2022/04/08 10:58:34;;;;;;;;;;;9.10;87.40;;;;;;5063748;28;20240;-67
2022/04/08 11:01:00;;;;;;;;;;;9.10;88.70;;;;;;5046336;28;19984;-68
2022/04/08 11:03:29;;;;;;;;;;;9.00;89.20;;;;;;5064398;28;19920;-68
2022/04/08 11:05:55;;;;;;;;;;;9.20;89.80;;;;;;5064615;28;20115;-68
2022/04/08 11:08:24;;;;;;;;;;;9.20;89.70;;;;;;5064377;28;19983;-67
2022/04/08 11:10:59;;;;;;;;;;;9.20;90.40;;;;;;5064178;28;19916;-67
2022/04/08 11:13:25;;;;;;;;;;;9.10;90.30;;;;;;5063906;28;19908;-67
2022/04/08 11:15:50;;;;;;;;;;;9.00;90.50;;;;;;5064227;28;19908;-68
2022/04/08 11:18:17;;;;;;;;;;;8.90;90.30;;;;;;5063977;28;19909;-67
2022/04/08 11:20:47;;;;;;;;;;;9.00;90.30;;;;;;5063459;28;19988;-67
2022/04/08 11:23:13;;;;;;;;;;;8.70;90.80;;;;;;5047537;28;20080;-67
2022/04/08 11:25:38;;;;;;;;;;;8.70;90.90;;;;;;5062305;28;19915;-71
2022/04/08 11:28:04;;;;;;;;;;;8.60;90.10;;;;;;5066293;28;20096;-68
2022/04/08 11:30:33;;;;;;;;;;;8.50;87.90;;;;;;5063599;28;19913;-66
2022/04/08 11:32:59;;;;;;;;;;;8.40;89.70;;;;;;5063348;28;19909;-68
2022/04/08 11:35:29;;;;;;;;;;;8.40;89.60;;;;;;5063553;28;19954;-67
2022/04/08 11:37:55;;;;;;;;;;;8.50;91.00;;;;;;5063564;28;19979;-67
2022/04/08 11:40:21;;;;;;;;;;;8.40;91.20;;;;;;5069553;28;19915;-67
2022/04/08 11:42:46;;;;;;;;;;;8.40;91.70;;;;;;5029632;28;19980;-67
2022/04/08 11:45:13;;;;;;;;;;;8.40;91.40;;;;;;5063649;28;19917;-66
2022/04/08 11:47:45;;;;;;;;;;;8.40;91.10;;;;;;5063513;28;20011;-68
2022/04/08 11:50:10;;;;;;;;;;;8.30;91.50;;;;;;5063451;28;19932;-65
2022/04/08 11:52:37;;;;;;;;;;;8.10;91.50;;;;;;5064583;28;19909;-68
2022/04/08 11:55:04;;;;;;;;;;;8.10;92.00;;;;;;5065882;28;19917;-69
2022/04/08 11:57:30;;;;;;;;;;;8.00;91.70;;;;;;5052228;28;19946;-73
2022/04/08 11:59:57;;;;;;;;;;;7.90;92.20;;;;;;5065024;28;19917;-68
2022/04/08 12:02:23;;;;;;;;;;;7.80;92.30;;;;;;5079558;28;19987;-69
2022/04/08 12:04:51;;;;;;;;;;;7.80;92.80;;;;;;5064488;28;19954;-69
2022/04/08 12:07:25;;;;;;;;;;;7.80;93.00;;;;;;5046611;28;20132;-69
2022/04/08 12:09:52;;;;;;;;;;;7.60;93.10;;;;;;5059446;28;19908;-67
2022/04/08 12:12:27;;;;;;;;;;;7.70;92.90;;;;;;5002406;28;19928;-69
2022/04/08 12:14:53;;;;;;;;;;;7.70;93.10;;;;;;5024739;28;19917;-70
2022/04/08 12:17:20;;;;;;;;;;;7.70;93.10;;;;;;5042137;28;19909;-71
2022/04/08 12:19:51;;;;;;;;;;;7.60;92.60;;;;;;5051660;28;20231;-71
2022/04/08 12:22:17;;;;;;;;;;;7.60;92.60;;;;;;5027717;28;20196;-71
2022/04/08 12:24:43;;;;;;;;;;;7.60;93.10;;;;;;5044755;28;19916;-68
2022/04/08 12:27:23;;;;;;;;;;;7.80;93.30;;;;;;5062059;28;19920;-68
2022/04/08 12:30:08;;;;;;;;;;;7.90;93.40;;;;;;5039801;28;19909;-69
2022/04/08 12:32:43;;;;;;;;;;;7.70;93.70;;;;;;5062048;28;20149;-69
2022/04/08 12:35:10;;;;;;;;;;;7.70;93.50;;;;;;5061518;28;19915;-69
2022/04/08 12:37:36;;;;;;;;;;;7.70;93.90;;;;;;5043437;28;19974;-66
2022/04/08 12:40:05;;;;;;;;;;;7.70;94.30;;;;;;5061813;28;19916;-68
2022/04/08 12:42:38;;;;;;;;;;;7.80;94.00;;;;;;5061237;28;19932;-68
2022/04/08 12:45:05;;;;;;;;;;;7.60;94.80;;;;;;5062055;28;19916;-67
2022/04/08 12:47:31;;;;;;;;;;;7.40;91.90;;;;;;5043913;28;19955;-67
2022/04/08 12:49:56;;;;;;;;;;;7.30;92.70;;;;;;5061410;28;20112;-69
2022/04/08 12:52:23;;;;;;;;;;;7.20;94.20;;;;;;5060271;28;19916;-68
2022/04/08 12:54:51;;;;;;;;;;;7.20;94.40;;;;;;5062264;28;19909;-68
2022/04/08 12:57:18;;;;;;;;;;;7.30;94.00;;;;;;5061915;28;19912;-72
2022/04/08 12:59:45;;;;;;;;;;;7.40;94.90;;;;;;5043499;28;19912;-68
2022/04/08 13:02:11;;;;;;;;;;;7.50;94.60;;;;;;5060963;28;19916;-67
2022/04/08 13:04:37;;;;;;;;;;;7.70;93.30;;;;;;5061400;28;20111;-66
2022/04/08 13:07:05;;;;;;;;;;;7.60;93.10;;;;;;5061415;28;20174;-65
2022/04/08 13:09:30;;;;;;;;;;;7.50;94.10;;;;;;5061499;28;19913;-65
2022/04/08 13:11:56;;;;;;;;;;;7.50;93.90;;;;;;5061545;28;19909;-65
2022/04/08 13:14:23;;;;;;;;;;;7.50;94.40;;;;;;5061232;28;19917;-65
2022/04/08 13:16:49;;;;;;;;;;;7.50;94.40;;;;;;5061527;28;19916;-65
2022/04/08 13:19:14;;;;;;;;;;;7.50;94.40;;;;;;5060898;28;19957;-66
2022/04/08 13:21:40;;;;;;;;;;;7.60;94.10;;;;;;5059925;28;19913;-66
2022/04/08 13:24:09;;;;;;;;;;;7.50;94.10;;;;;;5057773;28;19939;-65
2022/04/08 13:26:35;;;;;;;;;;;7.60;94.30;;;;;;5025997;28;19913;-65
2022/04/08 13:29:00;;;;;;;;;;;7.50;94.50;;;;;;5041233;28;19916;-66
2022/04/08 13:31:26;;;;;;;;;;;7.60;94.50;;;;;;5041183;28;19980;-66
2022/04/08 13:33:52;;;;;;;;;;;7.60;94.90;;;;;;5041019;28;19987;-66
2022/04/08 13:36:17;;;;;;;;;;;7.50;94.80;;;;;;5041325;28;20283;-65
2022/04/08 13:38:43;;;;;;;;;;;7.40;95.20;;;;;;5040886;28;20112;-66
2022/04/08 13:41:09;;;;;;;;;;;7.40;95.80;;;;;;5040616;28;20167;-66
2022/04/08 13:43:35;;;;;;;;;;;7.50;95.20;;;;;;5040976;28;19916;-67
2022/04/08 13:46:00;;;;;;;;;;;7.50;94.10;;;;;;5041166;28;19909;-67
2022/04/08 13:48:26;;;;;;;;;;;7.40;94.50;;;;;;5043233;28;19909;-66
2022/04/08 13:50:52;;;;;;;;;;;7.40;93.90;;;;;;5054510;28;19921;-68
2022/04/08 13:53:17;;;;;;;;;;;7.40;93.40;;;;;;5063638;28;19917;-66
2022/04/08 13:55:43;;;;;;;;;;;7.30;93.70;;;;;;5061614;28;19924;-67
2022/04/08 13:58:09;;;;;;;;;;;7.30;93.70;;;;;;5064304;28;20195;-66
2022/04/08 14:00:34;;;;;;;;;;;7.30;93.70;;;;;;5044804;28;19980;-66
2022/04/08 14:03:00;;;;;;;;;;;7.30;93.90;;;;;;5044721;28;19913;-67
2022/04/08 14:05:26;;;;;;;;;;;7.30;94.00;;;;;;5045158;28;19909;-67
2022/04/08 14:07:51;;;;;;;;;;;7.20;93.80;;;;;;5044945;28;19913;-68
2022/04/08 14:10:18;;;;;;;;;;;7.10;93.70;;;;;;5045078;28;19936;-67
2022/04/08 14:12:44;;;;;;;;;;;7.00;93.80;;;;;;5055939;28;19957;-67
2022/04/08 14:15:10;;;;;;;;;;;7.00;93.90;;;;;;5063761;28;19963;-67
2022/04/08 14:17:35;;;;;;;;;;;6.90;94.00;;;;;;5064720;28;20003;-67
2022/04/08 14:20:01;;;;;;;;;;;6.90;93.80;;;;;;5064620;28;19955;-67
2022/04/08 14:22:28;;;;;;;;;;;6.80;94.00;;;;;;5063985;28;19913;-66
2022/04/08 14:24:53;;;;;;;;;;;6.80;94.40;;;;;;5060427;28;19979;-67
2022/04/08 14:27:19;;;;;;;;;;;6.90;94.20;;;;;;5064226;28;19961;-67